Wiley Post Will Rogers Memorial Airport
PABR : now visible

Airfield :











YOU CAN JOIN US ON...

 
LOGIN :

Register | Disclaimer

   EN    FR    IT 

 









Legend :    VFR   Marginal VFR   IFR   Intensive IFR   Very Intensive IFR
Visi :
Ceiling :
>= 8 km
>= 3000ft
5 to 8 km
1000 to 3000 ft
1500m to 5 km
500 to 1000 ft
800 to 1500m
200 to 500 ft
< 800m
< 200 ft
Symbols :   Thunderstorms  Fog  Heavy snow  Heavy precipitations  Wind > 20 kt






- Airport Elevation : 44 ft
- IATA code : BRW


PABR - Wiley Post Will Rogers Memorial

CURRENT METAR :
  • 291012Z AUTO 19009KT 10SM BKN002 M13/M14 A2999 RMK AO2 T11281144 TSNO

EXPIRED METARs :
  • 290953Z AUTO 20011KT 10SM FEW002 SCT032 M12/M14 A2999 RMK AO2 SLP158 I1000 T11221144 TSNO
  • 290853Z AUTO 20011KT 10SM BKN002 M11/M13 A3000 RMK AO2 SLP159 60001 I3000 T11111133 410171128 58003 TSNO
  • 290753Z AUTO 21011KT 7SM BKN002 M12/M13 A3000 RMK AO2 SLP162 I1000 T11171133 TSNO
  • 290736Z AUTO 20013KT 6SM BR BKN002 BKN026 OVC033 M12/M14 A3000 RMK AO2 I1000 T11171139 TSNO

TAF PABR
Valid from the 29 at 09:00 until the 30 at 06:00 UTC


290839Z 2909/3006 19010KT P6SM VCSH OVC015
TEMPO 2909/2912 2SM -SN BR BKN002
FM291200 24015KT 2SM -SHSN BKN025
FM300300 24012KT 6SM -SN OVC050
PAZA FIR / North America



MET'MAP, your aeronautical weather chart ! - Copyright ORBIFLY December 2007 - Disclaimer

ORBIFLY MET'MAP TEAM :

Programming & Development : Alexandra Zaïnal
Concept & original design : Baudouin d'Aumeries
Assistance for programming : Marc-Olivier Méhu
Technical & hardware support : Manuel Goepfert

Contact : metmap@orbifly.com




SOURCES & CREDITS :

   NOAA       Earth
Advisory